createdAt,value
2022-09-28T00:00:06.733Z,2.05
2022-09-28T00:02:22.799Z,2.13
2022-09-28T00:04:45.495Z,1.70
2022-09-28T00:06:51.282Z,1.70
2022-09-28T00:08:53.206Z,1.88
2022-09-28T00:10:55.191Z,2.13
2022-09-28T00:12:56.850Z,2.97
2022-09-28T00:14:58.298Z,1.55
2022-09-28T00:16:59.819Z,2.33
2022-09-28T00:19:01.805Z,2.15
2022-09-28T00:21:22.887Z,1.33
2022-09-28T00:23:24.593Z,2.00
2022-09-28T00:25:26.328Z,2.60
2022-09-28T00:27:27.779Z,2.22
2022-09-28T00:29:31.709Z,1.52
2022-09-28T00:31:34.427Z,1.63
2022-09-28T00:33:36.243Z,1.70
2022-09-28T00:35:37.838Z,1.25
2022-09-28T00:37:39.877Z,1.70
2022-09-28T00:39:41.579Z,1.20
2022-09-28T00:41:43.685Z,1.35
2022-09-28T00:43:45.205Z,2.13
2022-09-28T00:45:52.326Z,2.15
2022-09-28T00:47:58.750Z,1.70
2022-09-28T00:50:05.784Z,1.80
2022-09-28T00:52:08.441Z,1.75
2022-09-28T00:54:10.390Z,2.20
2022-09-28T00:56:14.185Z,2.10
2022-09-28T00:58:20.753Z,1.83
2022-09-28T01:00:22.355Z,1.38
2022-09-28T01:02:24.022Z,2.38
2022-09-28T01:04:29.738Z,2.47
2022-09-28T01:06:33.323Z,3.42
2022-09-28T01:08:35.720Z,3.10
2022-09-28T01:10:38.741Z,2.35
2022-09-28T01:12:40.419Z,1.35
2022-09-28T01:14:42.353Z,1.52
2022-09-28T01:16:53.043Z,1.67
2022-09-28T01:18:55.082Z,1.85
2022-09-28T01:21:17.858Z,1.80
2022-09-28T01:23:25.512Z,1.23
2022-09-28T01:25:45.598Z,1.73
2022-09-28T01:27:52.027Z,1.90
2022-09-28T01:30:06.299Z,1.40
2022-09-28T01:32:21.926Z,2.28
2022-09-28T01:34:31.248Z,2.15
2022-09-28T01:36:42.854Z,1.05
2022-09-28T01:38:49.482Z,1.35
2022-09-28T01:40:51.993Z,1.33
2022-09-28T01:42:59.931Z,2.17
2022-09-28T01:45:05.010Z,1.45
2022-09-28T01:47:09.405Z,1.42
2022-09-28T01:49:13.094Z,2.92
2022-09-28T01:51:23.214Z,1.63
2022-09-28T01:53:43.310Z,4.00
2022-09-28T01:55:50.375Z,1.77
2022-09-28T01:57:55.446Z,1.63
2022-09-28T02:00:02.451Z,1.70
2022-09-28T02:02:10.414Z,2.40
2022-09-28T02:04:44.086Z,1.23
2022-09-28T02:07:05.861Z,1.48
2022-09-28T02:09:11.227Z,2.80
2022-09-28T02:11:16.991Z,1.08
2022-09-28T02:13:22.058Z,1.83
2022-09-28T02:15:28.845Z,1.30
2022-09-28T02:17:30.557Z,2.13
2022-09-28T02:19:32.990Z,1.90
2022-09-28T02:21:43.708Z,2.03
2022-09-28T02:23:51.608Z,1.63
2022-09-28T02:25:58.875Z,1.55
2022-09-28T02:28:02.223Z,1.30
2022-09-28T02:30:04.883Z,1.48
2022-09-28T02:32:06.388Z,1.90
2022-09-28T02:34:08.968Z,2.13
2022-09-28T02:36:10.963Z,1.58
2022-09-28T02:38:13.117Z,1.80
2022-09-28T02:40:22.184Z,1.75
2022-09-28T02:42:33.424Z,2.65
2022-09-28T02:44:43.009Z,1.98
2022-09-28T02:46:46.935Z,1.40
2022-09-28T02:49:04.941Z,1.52
2022-09-28T02:51:21.614Z,1.87
2022-09-28T02:53:51.148Z,0.90
2022-09-28T02:55:55.109Z,1.90
2022-09-28T02:58:11.280Z,1.10
2022-09-28T03:00:24.139Z,1.70
2022-09-28T03:02:40.496Z,1.67
2022-09-28T03:04:48.547Z,2.45
2022-09-28T03:06:57.053Z,1.10
2022-09-28T03:09:00.775Z,2.00
2022-09-28T03:11:09.637Z,1.30
2022-09-28T03:13:12.338Z,1.50
2022-09-28T03:15:20.108Z,1.35
2022-09-28T03:17:21.574Z,1.63
2022-09-28T03:19:25.072Z,1.75
2022-09-28T03:21:26.644Z,1.50
2022-09-28T03:23:28.373Z,1.60
2022-09-28T03:25:30.203Z,1.15
2022-09-28T03:27:31.772Z,1.80
2022-09-28T03:29:34.478Z,1.50
2022-09-28T03:31:36.009Z,1.67
2022-09-28T03:33:38.723Z,2.80
2022-09-28T03:35:40.230Z,1.20
2022-09-28T03:38:07.380Z,1.23
2022-09-28T03:40:09.332Z,1.00
2022-09-28T03:42:10.843Z,1.13
2022-09-28T03:44:12.904Z,1.35
2022-09-28T03:46:14.403Z,3.05
2022-09-28T03:48:17.206Z,1.00
2022-09-28T03:50:21.184Z,1.40
2022-09-28T03:52:23.030Z,1.48
2022-09-28T03:54:24.575Z,1.60
2022-09-28T03:56:26.152Z,1.40
2022-09-28T03:58:28.070Z,1.02
2022-09-28T04:00:29.987Z,0.85
2022-09-28T04:02:31.571Z,1.45
2022-09-28T04:04:33.438Z,1.52
2022-09-28T04:06:34.985Z,1.92
2022-09-28T04:08:36.566Z,1.40
2022-09-28T04:10:38.055Z,1.05
2022-09-28T04:12:39.599Z,1.98
2022-09-28T04:14:41.226Z,1.50
2022-09-28T04:16:42.692Z,1.42
2022-09-28T04:18:44.494Z,1.25
2022-09-28T04:20:48.153Z,1.13
2022-09-28T04:22:50.412Z,1.40
2022-09-28T04:24:52.107Z,1.33
2022-09-28T04:27:13.558Z,1.27
2022-09-28T04:29:18.856Z,1.63
2022-09-28T04:31:22.331Z,0.82
2022-09-28T04:33:23.930Z,1.53
2022-09-28T04:35:25.458Z,0.98
2022-09-28T04:37:26.927Z,2.63
2022-09-28T04:39:28.510Z,1.45
2022-09-28T04:41:30.016Z,0.90
2022-09-28T04:43:31.900Z,1.17
2022-09-28T04:45:33.413Z,1.33
2022-09-28T04:47:34.929Z,1.08
2022-09-28T04:49:38.423Z,2.08
2022-09-28T04:51:40.219Z,1.30
2022-09-28T04:53:41.700Z,1.48
2022-09-28T04:55:43.213Z,1.23
2022-09-28T04:57:44.787Z,0.88
2022-09-28T04:59:46.345Z,1.33
2022-09-28T05:01:48.363Z,1.17
2022-09-28T05:03:51.040Z,0.90
2022-09-28T05:05:52.855Z,0.98
2022-09-28T05:07:57.095Z,1.63
2022-09-28T05:12:00.286Z,0.82
2022-09-28T05:14:01.813Z,0.90
2022-09-28T05:16:05.637Z,1.00
2022-09-28T05:18:07.577Z,0.80
2022-09-28T05:20:09.282Z,1.20
2022-09-28T05:22:14.865Z,0.85
2022-09-28T05:24:16.643Z,1.17
2022-09-28T05:26:19.300Z,2.38
2022-09-28T05:28:24.321Z,0.80
2022-09-28T05:30:26.039Z,1.05
2022-09-28T05:32:27.606Z,1.17
2022-09-28T05:34:29.239Z,0.77
2022-09-28T05:36:32.636Z,0.85
2022-09-28T05:38:34.385Z,0.63
2022-09-28T05:40:35.858Z,1.00
2022-09-28T05:42:37.644Z,0.80
2022-09-28T05:44:39.159Z,0.70
2022-09-28T05:46:40.638Z,0.65
2022-09-28T05:48:46.658Z,1.05
2022-09-28T05:51:00.852Z,1.33
2022-09-28T05:53:13.693Z,1.00
2022-09-28T05:55:24.473Z,0.77
2022-09-28T05:57:36.364Z,1.10
2022-09-28T05:59:44.766Z,0.60
2022-09-28T06:01:55.155Z,1.05
2022-09-28T06:04:06.187Z,1.00
2022-09-28T06:06:16.720Z,0.82
2022-09-28T06:08:27.055Z,0.82
2022-09-28T06:10:38.041Z,2.55
2022-09-28T06:12:46.237Z,0.70
2022-09-28T06:14:52.737Z,0.82
2022-09-28T06:16:59.842Z,0.93
2022-09-28T06:19:02.647Z,1.30
2022-09-28T06:21:05.942Z,1.15
2022-09-28T06:23:07.922Z,1.30
2022-09-28T06:25:09.795Z,1.08
2022-09-28T06:27:11.448Z,1.40
2022-09-28T06:29:19.807Z,0.93
2022-09-28T06:31:24.124Z,1.58
2022-09-28T06:33:26.500Z,1.58
2022-09-28T06:35:30.600Z,1.05
2022-09-28T06:37:33.132Z,1.13
2022-09-28T06:39:34.660Z,1.17
2022-09-28T06:41:36.248Z,1.25
2022-09-28T06:43:39.711Z,0.90
2022-09-28T06:45:41.762Z,1.05
2022-09-28T06:47:43.527Z,1.80
2022-09-28T06:49:47.855Z,1.13
2022-09-28T06:51:49.365Z,1.00
2022-09-28T06:53:53.906Z,1.08
2022-09-28T06:55:56.232Z,1.10
2022-09-28T06:58:02.210Z,2.33
2022-09-28T07:00:04.641Z,1.60
2022-09-28T07:02:06.357Z,1.45
2022-09-28T07:04:08.203Z,1.40
2022-09-28T07:06:11.539Z,1.88
2022-09-28T07:08:14.390Z,1.70
2022-09-28T07:10:16.090Z,1.77
2022-09-28T07:12:17.601Z,1.25
2022-09-28T07:14:39.136Z,1.30
2022-09-28T07:17:09.573Z,1.13
2022-09-28T07:19:03.678Z,1.75
2022-09-28T07:21:08.632Z,1.80
2022-09-28T07:23:19.115Z,1.60
2022-09-28T07:25:21.952Z,2.03
2022-09-28T07:27:28.166Z,1.13
2022-09-28T07:29:30.634Z,1.80
2022-09-28T07:31:33.856Z,1.50
2022-09-28T07:33:35.380Z,1.55
2022-09-28T07:35:36.955Z,1.30
2022-09-28T07:37:38.532Z,1.95
2022-09-28T07:39:58.938Z,1.60
2022-09-28T07:42:02.937Z,2.30
2022-09-28T07:44:07.697Z,1.73
2022-09-28T07:46:12.117Z,2.80
2022-09-28T07:48:16.924Z,2.80
2022-09-28T07:50:18.508Z,3.10
2022-09-28T07:52:20.210Z,2.15
2022-09-28T07:54:21.903Z,1.83
2022-09-28T07:56:23.700Z,2.63
2022-09-28T07:58:25.365Z,2.38
2022-09-28T08:00:34.121Z,1.85
2022-09-28T08:02:37.490Z,2.08
2022-09-28T08:04:39.813Z,2.93
2022-09-28T08:06:41.557Z,1.58
2022-09-28T08:08:46.535Z,2.55
2022-09-28T08:10:48.129Z,2.92
2022-09-28T08:12:55.166Z,1.88
2022-09-28T08:14:56.723Z,1.65
2022-09-28T08:16:58.245Z,1.52
2022-09-28T08:18:59.802Z,2.40
2022-09-28T08:21:23.442Z,2.22
2022-09-28T08:23:25.861Z,1.23
2022-09-28T08:25:27.352Z,2.13
2022-09-28T08:27:29.034Z,2.05
2022-09-28T08:29:31.939Z,1.33
2022-09-28T08:31:33.907Z,1.08
2022-09-28T08:33:35.748Z,0.88
2022-09-28T08:35:38.002Z,1.00
2022-09-28T08:37:39.533Z,1.88
2022-09-28T08:39:41.180Z,0.98
2022-09-28T08:41:48.589Z,1.30
2022-09-28T08:44:12.050Z,1.63
2022-09-28T08:46:15.121Z,0.70
2022-09-28T08:48:38.209Z,0.98
2022-09-28T08:51:09.846Z,0.70
2022-09-28T08:53:33.022Z,0.90
2022-09-28T08:55:40.777Z,0.70
2022-09-28T08:57:47.198Z,1.05
2022-09-28T08:59:56.611Z,0.90
2022-09-28T09:02:01.945Z,0.88
2022-09-28T09:04:09.537Z,0.90
2022-09-28T09:06:18.277Z,1.38
2022-09-28T09:08:28.165Z,1.50
2022-09-28T09:11:02.257Z,0.93
2022-09-28T09:13:25.764Z,0.80
2022-09-28T09:15:29.816Z,1.00
2022-09-28T09:19:49.888Z,1.10
2022-09-28T09:21:58.573Z,0.70
2022-09-28T09:24:28.510Z,0.77
2022-09-28T09:26:40.874Z,1.20
2022-09-28T09:28:43.755Z,1.27
2022-09-28T09:30:56.787Z,0.70
2022-09-28T09:33:17.135Z,0.50
2022-09-28T09:35:29.107Z,1.10
2022-09-28T09:40:02.783Z,1.67
2022-09-28T09:42:37.441Z,1.00
2022-09-28T09:44:57.221Z,0.80
2022-09-28T09:47:04.632Z,0.50
2022-09-28T09:49:15.869Z,1.33
2022-09-28T09:51:26.740Z,0.70
2022-09-28T09:53:40.846Z,0.88
2022-09-28T09:55:46.686Z,0.70
2022-09-28T09:57:53.141Z,0.85
2022-09-28T09:59:57.275Z,0.68
2022-09-28T10:02:01.007Z,0.52
2022-09-28T10:04:04.882Z,0.60
2022-09-28T10:08:08.934Z,0.77
2022-09-28T10:10:31.230Z,0.93
2022-09-28T10:12:33.234Z,0.43
2022-09-28T10:14:35.769Z,0.70
2022-09-28T10:16:37.386Z,0.68
2022-09-28T10:18:39.090Z,0.70
2022-09-28T10:20:42.839Z,0.73
2022-09-28T10:22:44.666Z,1.10
2022-09-28T10:24:47.550Z,1.02
2022-09-28T10:26:50.918Z,0.70
2022-09-28T10:28:55.234Z,0.73
2022-09-28T10:30:56.862Z,0.68
2022-09-28T10:33:00.767Z,1.20
2022-09-28T10:35:20.450Z,1.38
2022-09-28T10:37:24.153Z,1.45
2022-09-28T10:39:30.536Z,1.42
2022-09-28T10:41:32.373Z,1.17
2022-09-28T10:43:35.216Z,0.80
2022-09-28T10:45:37.637Z,1.20
2022-09-28T10:47:43.370Z,0.93
2022-09-28T10:49:47.422Z,1.70
2022-09-28T10:51:51.721Z,0.80
2022-09-28T10:54:00.982Z,0.98
2022-09-28T10:56:04.723Z,1.50
2022-09-28T10:58:25.103Z,1.08
2022-09-28T11:00:32.360Z,0.82
2022-09-28T11:02:38.181Z,0.98
2022-09-28T11:04:43.649Z,0.70
2022-09-28T11:06:46.934Z,1.02
2022-09-28T11:08:49.386Z,0.93
2022-09-28T11:11:01.951Z,1.02
2022-09-28T11:13:03.424Z,0.60
2022-09-28T11:15:06.428Z,0.73
2022-09-28T11:17:17.126Z,0.47
2022-09-28T11:19:18.848Z,1.17
2022-09-28T11:21:28.964Z,1.05
2022-09-28T11:23:31.249Z,0.40
2022-09-28T11:25:32.770Z,0.85
2022-09-28T11:27:34.339Z,0.57
2022-09-28T11:29:44.393Z,0.73
2022-09-28T11:31:46.659Z,0.70
2022-09-28T11:33:48.331Z,0.60
2022-09-28T11:36:04.786Z,0.68
2022-09-28T11:38:25.019Z,0.30
2022-09-28T11:40:46.980Z,0.40
2022-09-28T11:43:02.677Z,0.50
2022-09-28T11:45:11.831Z,0.32
2022-09-28T11:47:32.263Z,0.47
2022-09-28T11:49:38.286Z,1.13
2022-09-28T11:51:41.150Z,0.30
2022-09-28T11:53:45.476Z,0.20
2022-09-28T11:55:49.424Z,0.32
2022-09-28T11:58:11.649Z,0.45
2022-09-28T12:00:19.717Z,0.43
2022-09-28T12:02:29.104Z,0.55
2022-09-28T12:04:35.057Z,0.50
2022-09-28T12:07:09.749Z,0.60
2022-09-28T12:09:27.329Z,1.38
2022-09-28T12:11:38.561Z,0.70
2022-09-28T12:13:57.768Z,0.50
2022-09-28T12:19:28.064Z,0.73
2022-09-28T12:21:36.552Z,0.30
2022-09-28T12:23:44.194Z,1.10
2022-09-28T12:25:52.718Z,0.30
2022-09-28T12:28:02.269Z,1.02
2022-09-28T12:30:15.559Z,0.82
2022-09-28T12:32:20.144Z,0.65
2022-09-28T12:34:22.658Z,0.50
2022-09-28T12:36:28.532Z,0.60
2022-09-28T12:38:30.273Z,0.98
2022-09-28T12:40:32.062Z,0.60
2022-09-28T12:42:53.061Z,0.40
2022-09-28T12:45:03.463Z,0.50
2022-09-28T12:47:09.779Z,0.40
2022-09-28T12:51:47.948Z,0.50
2022-09-28T12:54:13.966Z,0.55
2022-09-28T12:56:21.917Z,0.60
2022-09-28T12:58:26.155Z,0.35
2022-09-28T13:00:36.478Z,0.70
2022-09-28T13:02:50.549Z,0.70
2022-09-28T13:05:05.036Z,0.40
2022-09-28T13:09:22.169Z,0.57
2022-09-28T13:11:26.478Z,0.30
2022-09-28T13:13:51.827Z,0.40
2022-09-28T13:16:28.598Z,0.95
2022-09-28T13:18:33.637Z,0.30
2022-09-28T13:20:58.643Z,0.40
2022-09-28T13:23:20.630Z,0.30
2022-09-28T13:25:23.699Z,0.20
2022-09-28T13:27:37.110Z,0.30
2022-09-28T13:31:47.748Z,0.32
2022-09-28T13:33:50.343Z,0.40
2022-09-28T13:35:51.951Z,0.70
2022-09-28T13:38:12.388Z,1.30
2022-09-28T13:40:14.303Z,1.17
2022-09-28T13:42:34.044Z,1.33
2022-09-28T13:44:38.514Z,0.52
2022-09-28T13:46:43.208Z,0.80
2022-09-28T13:48:58.619Z,0.75
2022-09-28T13:51:06.646Z,0.55
2022-09-28T13:53:30.754Z,0.68
2022-09-28T13:55:35.234Z,0.90
2022-09-28T13:57:37.226Z,0.30
2022-09-28T13:59:48.104Z,1.48
2022-09-28T14:02:07.119Z,1.05
2022-09-28T14:04:12.064Z,0.95
2022-09-28T14:06:27.418Z,0.52
2022-09-28T14:08:33.553Z,0.85
2022-09-28T14:10:49.569Z,0.38
2022-09-28T14:12:51.765Z,0.38
2022-09-28T14:14:54.206Z,0.50
2022-09-28T14:17:15.251Z,0.93
2022-09-28T14:19:16.804Z,1.25
2022-09-28T14:21:18.450Z,0.52
2022-09-28T14:23:35.927Z,0.65
2022-09-28T14:25:56.256Z,0.30
2022-09-28T14:27:57.836Z,0.22
2022-09-28T14:30:20.011Z,0.65
2022-09-28T14:32:22.817Z,0.55
2022-09-28T14:34:44.197Z,0.40
2022-09-28T14:37:07.458Z,0.50
2022-09-28T14:39:38.969Z,0.40
2022-09-28T14:41:42.805Z,0.60
2022-09-28T14:43:44.198Z,0.45
2022-09-28T14:45:45.760Z,0.38
2022-09-28T14:48:05.698Z,0.75
2022-09-28T14:50:24.026Z,0.63
2022-09-28T14:52:39.318Z,0.50
2022-09-28T14:54:45.294Z,0.50
2022-09-28T14:56:52.641Z,0.63
2022-09-28T14:58:56.909Z,0.63
2022-09-28T15:01:01.654Z,0.95
2022-09-28T15:03:07.793Z,0.70
2022-09-28T15:05:16.793Z,0.40
2022-09-28T15:07:23.152Z,0.50
2022-09-28T15:09:39.551Z,0.20
2022-09-28T15:11:47.999Z,0.40
2022-09-28T15:14:06.934Z,0.50
2022-09-28T15:16:19.540Z,0.22
2022-09-28T15:18:30.171Z,0.32
2022-09-28T15:20:42.677Z,0.40
2022-09-28T15:22:46.290Z,0.32
2022-09-28T15:25:03.431Z,0.28
2022-09-28T15:27:23.659Z,0.32
2022-09-28T15:29:33.258Z,1.15
2022-09-28T15:31:37.738Z,0.30
2022-09-28T15:34:05.425Z,0.30
2022-09-28T15:36:13.792Z,0.25
2022-09-28T15:38:17.552Z,0.30
2022-09-28T15:40:31.125Z,0.47
2022-09-28T15:42:37.379Z,0.95
2022-09-28T15:44:39.841Z,0.25
2022-09-28T15:46:47.852Z,0.30
2022-09-28T15:48:55.221Z,0.50
2022-09-28T15:50:58.459Z,0.22
2022-09-28T15:53:02.246Z,0.43
2022-09-28T15:55:06.331Z,0.93
2022-09-28T15:57:28.024Z,0.32
2022-09-28T15:59:37.098Z,0.40
2022-09-28T16:01:39.806Z,0.40
2022-09-28T16:03:41.428Z,0.63
2022-09-28T16:05:57.726Z,0.70
2022-09-28T16:08:01.983Z,0.80
2022-09-28T16:10:25.894Z,0.57
2022-09-28T16:12:50.670Z,0.70
2022-09-28T16:14:54.172Z,0.40
2022-09-28T16:16:57.179Z,0.60
2022-09-28T16:19:00.697Z,0.65
2022-09-28T16:21:22.268Z,0.70
2022-09-28T16:23:24.183Z,0.95
2022-09-28T16:25:26.751Z,0.80
2022-09-28T16:27:29.955Z,0.73
2022-09-28T16:29:35.776Z,1.23
2022-09-28T16:31:37.972Z,1.00
2022-09-28T16:34:01.238Z,1.05
2022-09-28T16:36:03.387Z,0.88
2022-09-28T16:38:11.940Z,1.20
2022-09-28T16:40:13.792Z,0.68
2022-09-28T16:42:15.629Z,0.60
2022-09-28T16:44:27.979Z,0.68
2022-09-28T16:46:37.644Z,0.85
2022-09-28T16:48:48.686Z,0.45
2022-09-28T16:50:51.059Z,1.48
2022-09-28T16:53:29.307Z,1.00
2022-09-28T16:55:40.623Z,0.52
2022-09-28T16:57:44.042Z,0.40
2022-09-28T16:59:45.677Z,0.80
2022-09-28T17:01:47.395Z,0.70
2022-09-28T17:03:50.271Z,0.40
2022-09-28T17:05:52.762Z,0.77
2022-09-28T17:08:04.120Z,0.88
2022-09-28T17:10:14.210Z,0.77
2022-09-28T17:12:19.414Z,0.80
2022-09-28T17:14:23.398Z,1.17
2022-09-28T17:18:46.938Z,0.80
2022-09-28T17:20:50.027Z,0.55
2022-09-28T17:22:51.962Z,0.52
2022-09-28T17:24:53.495Z,0.60
2022-09-28T17:26:55.251Z,1.10
2022-09-28T17:29:00.225Z,0.73
2022-09-28T17:31:02.253Z,0.60
2022-09-28T17:33:03.922Z,0.60
2022-09-28T17:35:23.475Z,0.90
2022-09-28T17:37:25.503Z,0.68
2022-09-28T17:39:27.340Z,0.93
2022-09-28T17:41:28.998Z,0.60
2022-09-28T17:43:30.505Z,0.52
2022-09-28T17:45:32.904Z,0.73
2022-09-28T17:47:34.629Z,1.63
2022-09-28T17:49:36.346Z,0.50
2022-09-28T17:51:38.329Z,0.60
2022-09-28T17:53:40.141Z,0.55
2022-09-28T17:55:43.188Z,0.32
2022-09-28T17:57:45.234Z,0.70
2022-09-28T17:59:46.748Z,0.68
2022-09-28T18:01:48.600Z,0.70
2022-09-28T18:03:50.478Z,0.75
2022-09-28T18:06:07.848Z,0.43
2022-09-28T18:08:13.659Z,0.63
2022-09-28T18:10:22.277Z,0.50
2022-09-28T18:12:31.443Z,2.10
2022-09-28T18:14:42.072Z,1.70
2022-09-28T18:16:55.218Z,0.70
2022-09-28T18:19:04.738Z,0.57
2022-09-28T18:21:09.419Z,1.20
2022-09-28T18:23:14.431Z,0.93
2022-09-28T18:25:18.345Z,0.52
2022-09-28T18:27:24.870Z,0.60
2022-09-28T18:29:33.083Z,0.98
2022-09-28T18:31:42.096Z,0.65
2022-09-28T18:33:51.984Z,0.60
2022-09-28T18:35:55.368Z,0.60
2022-09-28T18:38:04.101Z,0.70
2022-09-28T18:40:14.885Z,1.23
2022-09-28T18:42:18.158Z,1.25
2022-09-28T18:44:19.755Z,1.00
2022-09-28T18:46:21.346Z,1.63
2022-09-28T18:48:24.919Z,1.83
2022-09-28T18:50:26.512Z,0.93
2022-09-28T18:52:28.304Z,0.95
2022-09-28T18:54:29.867Z,0.98
2022-09-28T18:56:31.361Z,1.10
2022-09-28T18:58:33.824Z,1.20
2022-09-28T19:00:37.653Z,1.58
2022-09-28T19:02:39.327Z,0.82
2022-09-28T19:04:41.615Z,1.10
2022-09-28T19:06:44.727Z,0.82
2022-09-28T19:08:51.399Z,1.00
2022-09-28T19:10:53.066Z,1.00
2022-09-28T19:12:54.682Z,0.98
2022-09-28T19:14:56.499Z,0.73
2022-09-28T19:16:58.045Z,1.23
2022-09-28T19:19:00.994Z,0.82
2022-09-28T19:21:04.076Z,0.90
2022-09-28T19:23:06.029Z,1.70
2022-09-28T19:25:08.905Z,1.20
2022-09-28T19:27:10.533Z,0.95
2022-09-28T19:29:12.408Z,1.00
2022-09-28T19:31:14.035Z,1.25
2022-09-28T19:33:17.523Z,1.42
2022-09-28T19:35:19.187Z,1.70
2022-09-28T19:37:20.731Z,1.88
2022-09-28T19:39:22.350Z,1.65
2022-09-28T19:41:43.371Z,1.80
2022-09-28T19:43:45.697Z,1.63
2022-09-28T19:45:52.375Z,1.52
2022-09-28T19:47:57.365Z,1.80
2022-09-28T19:50:01.098Z,2.80
2022-09-28T19:52:19.470Z,3.15
2022-09-28T19:54:22.293Z,2.13
2022-09-28T19:56:24.096Z,2.08
2022-09-28T19:58:28.456Z,2.00
2022-09-28T20:00:30.052Z,2.10
2022-09-28T20:02:32.930Z,2.13
2022-09-28T20:04:34.505Z,1.85
2022-09-28T20:06:35.981Z,2.55
2022-09-28T20:08:40.277Z,2.42
2022-09-28T20:10:55.018Z,1.92
2022-09-28T20:12:56.497Z,2.33
2022-09-28T20:14:58.317Z,2.03
2022-09-28T20:16:59.863Z,3.30
2022-09-28T20:19:03.974Z,2.75
2022-09-28T20:23:07.307Z,1.98
2022-09-28T20:25:08.847Z,1.98
2022-09-28T20:27:10.639Z,2.17
2022-09-28T20:29:12.414Z,1.98
2022-09-28T20:31:24.264Z,2.10
2022-09-28T20:33:28.858Z,2.35
2022-09-28T20:35:33.338Z,2.00
2022-09-28T20:37:35.731Z,2.28
2022-09-28T20:39:40.416Z,1.40
2022-09-28T20:41:47.321Z,1.70
2022-09-28T20:43:53.108Z,1.80
2022-09-28T20:45:55.784Z,1.75
2022-09-28T20:47:57.393Z,2.10
2022-09-28T20:49:59.178Z,1.77
2022-09-28T20:52:00.763Z,1.85
2022-09-28T20:54:02.834Z,1.50
2022-09-28T20:56:06.229Z,1.83
2022-09-28T20:58:07.823Z,1.70
2022-09-28T21:00:12.415Z,1.73
2022-09-28T21:02:15.374Z,1.63
2022-09-28T21:04:17.062Z,2.50
2022-09-28T21:06:20.336Z,1.85
2022-09-28T21:08:23.986Z,2.70
2022-09-28T21:10:25.633Z,2.30
2022-09-28T21:12:28.158Z,2.17
2022-09-28T21:14:29.917Z,2.20
2022-09-28T21:16:32.116Z,2.40
2022-09-28T21:18:33.845Z,1.95
2022-09-28T21:20:38.157Z,2.30
2022-09-28T21:22:48.907Z,2.00
2022-09-28T21:25:02.413Z,1.52
2022-09-28T21:27:07.390Z,1.65
2022-09-28T21:29:17.738Z,1.55
2022-09-28T21:31:29.120Z,1.85
2022-09-28T21:33:37.957Z,1.30
2022-09-28T21:35:42.389Z,1.23
2022-09-28T21:37:52.206Z,1.33
2022-09-28T21:40:04.580Z,1.15
2022-09-28T21:42:14.092Z,1.40
2022-09-28T21:44:18.997Z,1.52
2022-09-28T21:46:26.827Z,0.80
2022-09-28T21:48:30.418Z,1.00
2022-09-28T21:50:31.821Z,1.10
2022-09-28T21:52:33.306Z,0.82
2022-09-28T21:54:37.337Z,0.80
2022-09-28T21:56:38.807Z,1.05
2022-09-28T21:58:40.373Z,1.30
2022-09-28T22:00:42.082Z,0.98
2022-09-28T22:02:43.968Z,0.80
2022-09-28T22:04:45.529Z,1.15
2022-09-28T22:06:46.995Z,1.42
2022-09-28T22:08:49.214Z,1.02
2022-09-28T22:11:00.901Z,0.70
2022-09-28T22:13:02.363Z,1.05
2022-09-28T22:15:04.088Z,0.80
2022-09-28T22:17:05.647Z,1.00
2022-09-28T22:19:07.133Z,1.00
2022-09-28T22:21:13.557Z,0.75
2022-09-28T22:23:15.306Z,0.50
2022-09-28T22:25:17.336Z,1.83
2022-09-28T22:27:18.790Z,0.90
2022-09-28T22:29:21.685Z,1.08
2022-09-28T22:31:24.649Z,0.60
2022-09-28T22:33:26.544Z,1.00
2022-09-28T22:35:27.970Z,1.23
2022-09-28T22:37:29.568Z,0.93
2022-09-28T22:39:36.709Z,0.98
2022-09-28T22:41:39.392Z,1.00
2022-09-28T22:43:40.923Z,0.60
2022-09-28T22:45:42.939Z,0.88
2022-09-28T22:47:44.459Z,0.70
2022-09-28T22:49:45.931Z,0.77
2022-09-28T22:51:47.444Z,0.77
2022-09-28T22:53:49.015Z,0.70
2022-09-28T22:55:50.506Z,0.60
2022-09-28T22:57:52.281Z,0.68
2022-09-28T22:59:53.706Z,1.17
2022-09-28T23:01:55.670Z,0.95
2022-09-28T23:03:58.146Z,1.00
2022-09-28T23:05:59.575Z,0.70
2022-09-28T23:08:01.144Z,0.88
2022-09-28T23:10:02.942Z,1.15
2022-09-28T23:12:04.487Z,0.73
2022-09-28T23:14:06.719Z,0.80
2022-09-28T23:16:09.032Z,0.90
2022-09-28T23:18:10.552Z,0.82
2022-09-28T23:20:12.074Z,0.90
2022-09-28T23:22:13.807Z,1.38
2022-09-28T23:24:15.759Z,1.00
2022-09-28T23:26:18.434Z,1.20
2022-09-28T23:28:21.014Z,1.10
2022-09-28T23:30:23.775Z,0.85
2022-09-28T23:32:29.762Z,0.88
2022-09-28T23:34:33.234Z,1.05
2022-09-28T23:36:35.089Z,0.90
2022-09-28T23:38:36.577Z,1.08
2022-09-28T23:40:38.225Z,2.47
2022-09-28T23:42:39.744Z,0.93
2022-09-28T23:44:41.486Z,1.00
2022-09-28T23:46:43.150Z,1.58
2022-09-28T23:48:44.983Z,1.08
2022-09-28T23:50:46.439Z,1.30
2022-09-28T23:52:48.304Z,1.90
2022-09-28T23:54:49.778Z,0.90
2022-09-28T23:56:51.324Z,1.10
2022-09-28T23:58:52.780Z,0.77
